createdAt,value
2018-07-20T00:02:07.698Z,19.70
2018-07-20T00:04:36.286Z,19.60
2018-07-20T00:07:05.060Z,19.50
2018-07-20T00:09:33.627Z,19.60
2018-07-20T00:12:02.210Z,19.60
2018-07-20T00:14:30.898Z,19.70
2018-07-20T00:16:59.932Z,19.70
2018-07-20T00:19:28.548Z,19.60
2018-07-20T00:21:57.394Z,19.60
2018-07-20T00:26:54.232Z,19.30
2018-07-20T00:29:22.814Z,19.30
2018-07-20T00:31:51.358Z,19.30
2018-07-20T00:34:19.846Z,19.20
2018-07-20T00:36:48.346Z,19.20
2018-07-20T00:41:45.983Z,19.00
2018-07-20T00:52:45.178Z,19.00
2018-07-20T00:55:13.690Z,19.00
2018-07-20T00:57:45.201Z,18.50
2018-07-20T01:00:14.286Z,18.50
2018-07-20T01:02:42.782Z,18.40
2018-07-20T01:05:11.276Z,18.40
2018-07-20T01:07:39.810Z,18.50
2018-07-20T01:10:08.368Z,18.50
2018-07-20T01:12:37.364Z,18.50
2018-07-20T01:15:06.133Z,18.50
2018-07-20T01:17:34.632Z,18.60
2018-07-20T01:20:03.290Z,18.60
2018-07-20T01:22:32.164Z,18.60
2018-07-20T01:25:00.637Z,18.60
2018-07-20T01:27:29.140Z,18.50
2018-07-20T01:29:57.678Z,18.50
2018-07-20T01:32:27.334Z,18.40
2018-07-20T01:37:24.146Z,18.10
2018-07-20T01:39:52.639Z,18.20
2018-07-20T01:42:21.146Z,18.20
2018-07-20T01:44:50.744Z,18.20
2018-07-20T01:47:19.360Z,18.10
2018-07-20T01:49:47.895Z,18.00
2018-07-20T01:52:17.505Z,17.90
2018-07-20T01:54:46.050Z,17.90
2018-07-20T02:15:31.841Z,18.00
2018-07-20T02:18:00.418Z,17.50
2018-07-20T02:20:28.906Z,17.40
2018-07-20T02:22:57.422Z,17.40
2018-07-20T02:25:25.958Z,17.50
2018-07-20T02:27:54.563Z,17.50
2018-07-20T02:30:23.078Z,17.50
2018-07-20T02:32:52.278Z,17.50
2018-07-20T02:35:20.802Z,17.50
2018-07-20T02:37:49.318Z,17.50
2018-07-20T02:40:18.854Z,17.60
2018-07-20T02:42:47.359Z,17.60
2018-07-20T02:45:18.209Z,17.50
2018-07-20T02:47:46.770Z,17.50
2018-07-20T03:08:48.777Z,17.60
2018-07-20T03:11:17.494Z,17.60
2018-07-20T03:13:46.039Z,17.00
2018-07-20T03:23:56.008Z,17.00
2018-07-20T03:26:29.609Z,17.00
2018-07-20T03:28:58.165Z,16.80
2018-07-20T03:31:26.666Z,16.80
2018-07-20T03:33:55.158Z,16.80
2018-07-20T03:36:23.713Z,16.70
2018-07-20T03:38:52.209Z,16.80
2018-07-20T03:41:20.716Z,16.90
2018-07-20T03:43:49.547Z,16.90
2018-07-20T03:46:19.329Z,16.90
2018-07-20T03:48:47.818Z,16.80
2018-07-20T03:51:16.552Z,16.90
2018-07-20T03:53:45.118Z,16.80
2018-07-20T03:56:13.623Z,16.70
2018-07-20T03:58:42.148Z,16.70
2018-07-20T04:01:10.674Z,16.70
2018-07-20T04:03:39.166Z,16.70
2018-07-20T04:06:08.360Z,16.70
2018-07-20T04:08:36.894Z,16.80
2018-07-20T04:11:05.369Z,16.90
2018-07-20T04:16:02.130Z,16.90
2018-07-20T04:18:30.631Z,17.10
2018-07-20T04:20:59.149Z,17.10
2018-07-20T04:23:27.622Z,17.10
2018-07-20T04:25:56.102Z,17.20
2018-07-20T04:28:24.990Z,17.30
2018-07-20T04:30:53.533Z,17.30
2018-07-20T04:33:22.094Z,17.30
2018-07-20T04:35:50.695Z,17.40
2018-07-20T04:38:19.218Z,17.40
2018-07-20T04:40:47.901Z,17.40
2018-07-20T04:43:17.495Z,17.40
2018-07-20T04:45:46.017Z,17.50
2018-07-20T04:48:16.305Z,17.50
2018-07-20T04:50:45.335Z,17.60
2018-07-20T05:02:01.459Z,18.00
2018-07-20T05:04:29.994Z,18.10
2018-07-20T05:06:59.142Z,18.10
2018-07-20T05:09:27.723Z,18.20
2018-07-20T05:11:59.190Z,18.30
2018-07-20T05:14:28.354Z,18.50
2018-07-20T05:16:57.017Z,18.60
2018-07-20T05:19:26.651Z,18.70
2018-07-20T05:21:55.404Z,18.80
2018-07-20T05:24:23.905Z,18.90
2018-07-20T05:26:52.453Z,19.00
2018-07-20T05:29:21.073Z,19.10
2018-07-20T05:31:49.617Z,19.10
2018-07-20T05:34:18.131Z,19.30
2018-07-20T05:51:42.173Z,19.50
2018-07-20T05:54:10.837Z,20.10
2018-07-20T05:56:39.510Z,20.70
2018-07-20T05:59:08.025Z,21.90
2018-07-20T06:01:36.561Z,23.10
2018-07-20T06:04:05.228Z,24.60
2018-07-20T06:06:33.735Z,26.10
2018-07-20T06:09:03.008Z,27.30
2018-07-20T06:13:59.690Z,29.00
2018-07-20T06:16:28.244Z,29.60
2018-07-20T06:21:25.093Z,30.80
2018-07-20T06:23:53.666Z,31.60
2018-07-20T06:26:28.319Z,31.90
2018-07-20T06:28:57.422Z,32.30
2018-07-20T06:31:25.911Z,32.60
2018-07-20T06:33:54.397Z,32.60
2018-07-20T06:36:22.894Z,32.00
2018-07-20T06:38:51.626Z,31.50
2018-07-20T06:41:20.947Z,31.10
2018-07-20T06:43:49.970Z,30.60
2018-07-20T06:46:18.506Z,30.10
2018-07-20T06:48:47.049Z,29.90
2018-07-20T07:00:42.087Z,29.90
2018-07-20T07:03:10.570Z,30.20
2018-07-20T07:05:39.029Z,34.50
2018-07-20T07:08:07.570Z,34.50
2018-07-20T07:15:32.555Z,34.60
2018-07-20T07:18:01.202Z,35.20
2018-07-20T07:20:29.701Z,35.30
2018-07-20T07:22:58.677Z,36.10
2018-07-20T07:25:27.210Z,36.60
2018-07-20T07:27:55.728Z,36.30
2018-07-20T07:30:24.238Z,36.60
2018-07-20T07:32:52.736Z,36.50
2018-07-20T07:35:21.237Z,36.80
2018-07-20T07:37:49.756Z,37.50
2018-07-20T07:40:18.774Z,38.50
2018-07-20T07:42:48.230Z,39.50
2018-07-20T07:45:18.104Z,39.80
2018-07-20T07:47:46.577Z,40.00
2018-07-20T08:02:47.150Z,40.30
2018-07-20T08:05:17.033Z,40.80
2018-07-20T08:07:52.031Z,40.90
2018-07-20T08:10:20.705Z,41.30
2018-07-20T08:12:49.318Z,40.30
2018-07-20T08:15:18.812Z,39.90
2018-07-20T08:17:47.345Z,40.70
2018-07-20T08:20:17.499Z,41.90
2018-07-20T08:22:46.859Z,42.80
2018-07-20T08:31:23.582Z,42.70
2018-07-20T08:36:20.298Z,43.20
2018-07-20T08:38:48.810Z,43.20
2018-07-20T08:41:17.630Z,43.20
2018-07-20T08:43:46.086Z,43.70
2018-07-20T08:46:15.613Z,44.00
2018-07-20T08:48:44.186Z,44.20
2018-07-20T08:51:12.710Z,44.70
2018-07-20T08:53:41.789Z,44.90
2018-07-20T08:56:10.320Z,44.70
2018-07-20T08:58:38.818Z,43.70
2018-07-20T09:01:08.572Z,43.10
2018-07-20T09:03:38.053Z,44.10
2018-07-20T09:06:06.511Z,45.10
2018-07-20T09:08:35.065Z,45.10
2018-07-20T09:11:03.710Z,45.90
2018-07-20T09:13:32.377Z,45.90
2018-07-20T09:16:01.311Z,46.20
2018-07-20T09:18:29.824Z,46.60
2018-07-20T09:20:58.585Z,45.90
2018-07-20T09:23:27.194Z,44.30
2018-07-20T09:28:25.657Z,42.40
2018-07-20T09:30:54.322Z,42.10
2018-07-20T09:33:22.822Z,41.40
2018-07-20T09:35:51.348Z,40.90
2018-07-20T09:38:20.097Z,39.50
2018-07-20T09:40:48.633Z,38.20
2018-07-20T09:43:17.446Z,37.20
2018-07-20T09:45:45.976Z,36.20
2018-07-20T09:48:15.590Z,36.60
2018-07-20T09:50:44.850Z,37.00
2018-07-20T09:53:13.467Z,37.50
2018-07-20T09:58:10.271Z,39.50
2018-07-20T10:00:46.798Z,40.60
2018-07-20T10:03:17.326Z,40.50
2018-07-20T10:05:46.210Z,39.00
2018-07-20T10:08:18.988Z,38.30
2018-07-20T10:10:47.670Z,39.00
2018-07-20T10:13:17.946Z,38.80
2018-07-20T10:15:46.474Z,38.60
2018-07-20T10:37:17.818Z,37.40
2018-07-20T10:39:46.486Z,36.10
2018-07-20T10:42:17.286Z,33.70
2018-07-20T10:44:45.817Z,33.30
2018-07-20T11:09:49.560Z,33.50
2018-07-20T11:12:18.085Z,32.00
2018-07-20T11:14:46.654Z,31.70
2018-07-20T11:29:43.177Z,31.90
2018-07-20T11:32:14.682Z,32.20
2018-07-20T11:34:43.965Z,32.30
2018-07-20T11:37:13.666Z,32.60
2018-07-20T11:39:42.197Z,32.80
2018-07-20T11:42:10.754Z,32.80
2018-07-20T11:49:36.359Z,32.60
2018-07-20T11:52:04.941Z,32.70
2018-07-20T11:54:33.420Z,32.60
2018-07-20T11:59:30.717Z,32.40
2018-07-20T12:01:59.283Z,32.40
2018-07-20T12:04:27.754Z,32.40
2018-07-20T12:06:56.965Z,32.40
2018-07-20T12:09:25.571Z,32.40
2018-07-20T12:11:54.943Z,32.40
2018-07-20T12:14:23.538Z,32.30
2018-07-20T12:16:53.505Z,32.10
2018-07-20T12:19:22.018Z,32.30
2018-07-20T12:21:50.521Z,32.30
2018-07-20T12:24:19.023Z,32.30
2018-07-20T12:26:47.635Z,32.30
2018-07-20T12:29:17.715Z,32.20
2018-07-20T12:31:46.597Z,32.30
2018-07-20T12:53:12.911Z,32.40
2018-07-20T12:55:41.975Z,32.50
2018-07-20T12:58:10.543Z,31.80
2018-07-20T13:00:39.207Z,31.70
2018-07-20T13:03:07.731Z,31.80
2018-07-20T13:05:36.486Z,31.80
2018-07-20T13:08:06.802Z,31.70
2018-07-20T13:10:35.388Z,31.90
2018-07-20T13:13:05.075Z,32.00
2018-07-20T13:15:35.887Z,32.00
2018-07-20T13:18:04.795Z,31.80
2018-07-20T13:20:33.613Z,31.90
2018-07-20T13:23:02.556Z,31.80
2018-07-20T13:25:31.435Z,31.80
2018-07-20T13:28:00.095Z,31.80
2018-07-20T13:30:29.693Z,31.80
2018-07-20T13:32:58.217Z,31.70
2018-07-20T13:35:26.802Z,31.70
2018-07-20T13:37:56.067Z,31.70
2018-07-20T13:40:24.573Z,31.80
2018-07-20T13:42:53.692Z,31.90
2018-07-20T13:45:22.982Z,31.90
2018-07-20T13:47:51.575Z,32.00
2018-07-20T13:50:20.109Z,32.10
2018-07-20T13:52:48.683Z,32.00
2018-07-20T13:55:17.958Z,32.00
2018-07-20T13:57:46.521Z,32.10
2018-07-20T14:00:16.372Z,32.20
2018-07-20T14:02:44.943Z,32.40
2018-07-20T14:05:13.562Z,32.20
2018-07-20T14:07:42.318Z,32.30
2018-07-20T14:10:12.919Z,32.50
2018-07-20T14:12:41.615Z,32.60
2018-07-20T14:15:11.963Z,32.70
2018-07-20T14:17:40.670Z,32.50
2018-07-20T14:20:09.203Z,32.50
2018-07-20T14:22:37.956Z,32.40
2018-07-20T14:25:06.522Z,32.30
2018-07-20T14:27:38.511Z,32.10
2018-07-20T14:30:07.122Z,31.80
2018-07-20T14:32:40.277Z,31.80
2018-07-20T14:35:08.937Z,31.60
2018-07-20T14:37:37.478Z,31.50
2018-07-20T14:40:07.181Z,31.40
2018-07-20T14:45:04.800Z,31.30
2018-07-20T14:47:33.286Z,31.40
2018-07-20T14:50:01.871Z,31.40
2018-07-20T14:52:30.414Z,31.40
2018-07-20T14:54:58.948Z,31.50
2018-07-20T14:57:27.498Z,31.40
2018-07-20T14:59:56.040Z,31.40
2018-07-20T15:02:25.402Z,31.50
2018-07-20T15:04:54.424Z,31.60
2018-07-20T15:07:22.929Z,31.80
2018-07-20T15:09:51.425Z,32.00
2018-07-20T15:14:48.346Z,32.20
2018-07-20T15:17:19.341Z,32.10
2018-07-20T15:19:47.994Z,31.80
2018-07-20T15:22:16.590Z,31.70
2018-07-20T15:27:16.017Z,31.70
2018-07-20T15:29:44.882Z,31.70
2018-07-20T15:32:13.465Z,31.80
2018-07-20T15:34:42.352Z,31.90
2018-07-20T15:39:43.066Z,32.00
2018-07-20T15:42:11.919Z,32.00
2018-07-20T15:44:40.468Z,32.10
2018-07-20T15:47:12.438Z,32.20
2018-07-20T15:49:42.231Z,32.10
2018-07-20T15:54:39.853Z,31.80
2018-07-20T15:57:08.722Z,31.80
2018-07-20T15:59:37.618Z,31.80
2018-07-20T16:02:06.559Z,31.80
2018-07-20T16:04:36.104Z,31.70
2018-07-20T16:07:04.806Z,31.60
2018-07-20T16:09:33.402Z,31.60
2018-07-20T16:14:33.478Z,31.30
2018-07-20T16:17:02.110Z,31.20
2018-07-20T16:19:31.570Z,31.20
2018-07-20T16:22:01.142Z,31.20
2018-07-20T16:24:29.874Z,31.40
2018-07-20T16:26:58.883Z,31.40
2018-07-20T16:29:27.423Z,31.40
2018-07-20T16:31:56.127Z,31.50
2018-07-20T16:34:25.026Z,31.50
2018-07-20T16:36:53.637Z,31.60
2018-07-20T16:39:23.589Z,31.60
2018-07-20T16:41:52.130Z,31.70
2018-07-20T16:44:21.077Z,31.60
2018-07-20T16:46:49.702Z,31.50
2018-07-20T16:49:18.378Z,31.40
2018-07-20T16:54:15.939Z,31.30
2018-07-20T16:56:44.820Z,31.30
2018-07-20T16:59:13.669Z,31.20
2018-07-20T17:01:43.125Z,31.20
2018-07-20T17:04:11.713Z,31.20
2018-07-20T17:06:40.294Z,31.20
2018-07-20T17:09:14.211Z,31.20
2018-07-20T17:11:42.802Z,31.10
2018-07-20T17:14:11.463Z,31.10
2018-07-20T17:16:40.397Z,30.90
2018-07-20T17:19:09.389Z,30.80
2018-07-20T17:21:38.759Z,30.70
2018-07-20T17:24:07.488Z,30.70
2018-07-20T17:26:36.201Z,30.70
2018-07-20T17:29:07.024Z,30.60
2018-07-20T17:31:37.219Z,30.50
2018-07-20T17:34:05.746Z,30.50
2018-07-20T17:36:34.279Z,30.40
2018-07-20T17:39:03.574Z,30.40
2018-07-20T17:44:00.333Z,30.20
2018-07-20T17:48:57.167Z,30.00
2018-07-20T17:51:25.767Z,29.90
2018-07-20T17:56:22.889Z,29.80
2018-07-20T18:01:20.525Z,29.60
2018-07-20T18:03:49.103Z,29.50
2018-07-20T18:06:17.607Z,29.50
2018-07-20T18:08:48.227Z,29.40
2018-07-20T18:11:17.518Z,29.30
2018-07-20T18:38:08.565Z,29.10
2018-07-20T18:40:38.903Z,27.80
2018-07-20T18:43:07.487Z,27.70
2018-07-20T18:48:04.512Z,27.60
2018-07-20T18:50:33.090Z,27.60
2018-07-20T18:53:08.293Z,27.50
2018-07-20T18:55:36.930Z,27.40
2018-07-20T18:58:06.826Z,27.40
2018-07-20T19:00:35.578Z,27.40
2018-07-20T19:03:04.286Z,27.30
2018-07-20T19:17:03.995Z,26.90
2018-07-20T19:19:32.565Z,26.70
2018-07-20T19:22:01.124Z,26.60
2018-07-20T19:24:29.645Z,26.50
2018-07-20T19:26:58.689Z,26.50
2018-07-20T19:31:56.261Z,26.30
2018-07-20T19:34:24.934Z,26.20
2018-07-20T19:36:54.067Z,26.20
2018-07-20T19:39:22.638Z,26.10
2018-07-20T19:41:51.186Z,26.10
2018-07-20T19:44:23.006Z,26.00
2018-07-20T19:46:52.038Z,25.90
2018-07-20T19:49:21.381Z,25.90
2018-07-20T19:51:50.077Z,25.80
2018-07-20T19:54:18.666Z,25.60
2018-07-20T19:56:47.254Z,25.60
2018-07-20T19:59:17.671Z,25.60
2018-07-20T20:01:46.837Z,25.50
2018-07-20T20:13:54.592Z,25.50
2018-07-20T20:16:23.105Z,25.30
2018-07-20T20:18:51.618Z,25.30
2018-07-20T20:21:20.202Z,25.30
2018-07-20T20:23:48.753Z,25.30
2018-07-20T20:28:50.374Z,25.40
2018-07-20T20:31:19.569Z,25.40
2018-07-20T20:33:48.170Z,25.40
2018-07-20T20:36:17.555Z,25.40
2018-07-20T20:38:46.148Z,25.20
2018-07-20T20:53:45.910Z,25.00
2018-07-20T20:56:16.731Z,24.20
2018-07-20T20:58:45.434Z,24.10
2018-07-20T21:13:41.026Z,24.30
2018-07-20T21:16:09.605Z,23.80
2018-07-20T21:18:38.117Z,23.50
2018-07-20T21:21:06.665Z,23.40
2018-07-20T21:23:35.315Z,23.20
2018-07-20T21:26:04.177Z,23.00
2018-07-20T21:28:32.807Z,22.70
2018-07-20T21:31:02.104Z,22.60
2018-07-20T21:33:35.192Z,22.50
2018-07-20T21:36:03.970Z,22.20
2018-07-20T21:38:32.531Z,21.90
2018-07-20T21:41:01.071Z,21.70
2018-07-20T21:43:29.766Z,21.50
2018-07-20T21:45:58.258Z,21.40
2018-07-20T21:48:26.874Z,21.30
2018-07-20T21:50:55.822Z,21.00
2018-07-20T21:53:24.398Z,20.80
2018-07-20T21:55:52.986Z,20.60
2018-07-20T21:58:21.783Z,20.40
2018-07-20T22:00:50.455Z,20.30
2018-07-20T22:03:18.965Z,20.20
2018-07-20T22:08:16.772Z,20.10
2018-07-20T22:10:45.268Z,20.10
2018-07-20T22:13:14.827Z,20.10
2018-07-20T22:15:43.489Z,20.10
2018-07-20T22:18:12.005Z,20.10
2018-07-20T22:20:40.537Z,20.20
2018-07-20T22:23:09.149Z,20.20
2018-07-20T22:25:38.082Z,20.00
2018-07-20T22:28:06.723Z,20.10
2018-07-20T22:30:35.266Z,20.00
2018-07-20T22:33:04.750Z,19.90
2018-07-20T22:35:34.295Z,19.90
2018-07-20T22:38:02.946Z,19.90
2018-07-20T22:40:31.552Z,19.80
2018-07-20T22:43:00.196Z,19.90
2018-07-20T22:45:28.832Z,19.90
2018-07-20T22:47:57.383Z,19.90
2018-07-20T22:50:25.950Z,19.90
2018-07-20T22:52:54.489Z,19.80
